Data for 09/05/2007

Time Sea-Level Adjusted Pressure Absolute Pressure Temperature Relative Humidity Dew Point   
(mb) (inHg) (mb) (inHg) (C) (F) (%) (C) (F)
00:05 1013 29.91 842 24.86 14.5 58 79 10.9 51.7
00:10 1013 29.91 842 24.86 14.6 58.3 77 10.7 51.3
00:15 1013 29.91 842 24.86 14.7 58.5 77 10.8 51.4
00:20 1013 29.91 842 24.86 14.8 58.6 76 10.7 51.2
00:25 1013 29.91 842 24.86 14.9 58.8 75 10.5 50.8
00:30 1013 29.91 842 24.86 15.2 59.3 74 10.5 50.9
00:35 1013 29.91 843 24.89 15.3 59.5 73 10.4 50.8
00:40 1013 29.91 843 24.89 15.3 59.5 73 10.5 50.9
00:45 1014 29.94 843 24.89 15.3 59.5 72 10.3 50.6
00:50 1014 29.94 843 24.89 15.4 59.7 72 10.3 50.5
00:55 1014 29.94 843 24.89 15.5 59.9 70 10.1 50.3
01:00 1014 29.94 843 24.89 15.7 60.2 69 10 50.1
01:05 1014 29.94 843 24.89 15.9 60.6 70 10.6 51
01:10 1014 29.94 843 24.89 15.7 60.3 72 10.8 51.4
01:15 1014 29.94 843 24.89 15.6 60.1 73 10.7 51.3
01:20 1014 29.94 844 24.92 15.4 59.8 74 11 51.7
01:25 1015 29.97 844 24.92 14.9 58.9 81 11.7 53.1
01:30 1015 29.97 844 24.92 14.2 57.5 84 11.6 52.8
01:35 1015 29.97 844 24.92 13.9 57 85 11.5 52.7
01:40 1015 29.97 844 24.92 13.7 56.7 87 11.5 52.8
01:45 1015 29.97 844 24.92 13.7 56.7 88 11.7 53
01:50 1015 29.97 844 24.92 13.8 56.8 87 11.6 52.9
01:55 1015 29.97 844 24.92 13.9 57.1 86 11.7 53.1
02:00 1015 29.97 844 24.92 13.9 56.9 87 11.8 53.2
02:05 1015 29.97 844 24.92 13.7 56.7 88 11.8 53.2
02:10 1015 29.97 844 24.92 13.6 56.5 89 11.8 53.2
02:15 1015 29.97 844 24.92 13.6 56.4 89 11.8 53.3
02:20 1015 29.97 844 24.92 13.5 56.4 89 11.8 53.3
02:25 1015 29.97 844 24.92 13.5 56.3 90 11.9 53.4
02:30 1015 29.97 844 24.92 13.5 56.3 91 12 53.6
02:35 1015 29.97 844 24.92 13.5 56.3 90 11.9 53.4
02:40 1015 29.97 844 24.92 13.4 56.1 89 11.6 53
02:45 1015 29.97 844 24.92 13.5 56.2 87 11.4 52.5
02:50 1015 29.97 844 24.92 13.6 56.5 87 11.4 52.6
02:55 1015 29.97 844 24.92 13.6 56.5 86 11.4 52.5
03:00 1015 29.97 844 24.92 13.6 56.6 86 11.3 52.4
03:05 1015 29.97 844 24.92 13.7 56.6 86 11.4 52.6
03:10 1015 29.97 844 24.92 13.6 56.6 87 11.5 52.8
03:15 1015 29.97 844 24.92 13.6 56.5 87 11.5 52.7
03:20 1015 29.97 844 24.92 13.6 56.5 87 11.5 52.7
03:25 1015 29.97 844 24.92 13.7 56.6 91 12.2 54
03:30 1015 29.97 844 24.92 13.8 56.9 86 11.6 52.9
03:35 1015 29.97 844 24.92 13.6 56.6 87 11.5 52.7
03:40 1015 29.97 844 24.92 13.5 56.2 88 11.4 52.6
03:45 1015 29.97 844 24.92 13.5 56.3 87 11.3 52.4
03:50 1015 29.97 844 24.92 13.7 56.7 86 11.5 52.6
03:55 1015 29.97 844 24.92 13.8 56.8 85 11.4 52.5
04:00 1015 29.97 844 24.92 13.7 56.7 86 11.5 52.8
04:05 1015 29.97 844 24.92 13.7 56.7 87 11.6 52.9
04:10 1015 29.97 844 24.92 14 57.2 83 11.3 52.3
04:15 1015 29.97 844 24.92 14 57.2 85 11.6 52.9
04:20 1015 29.97 844 24.92 14 57.1 84 11.4 52.5
04:25 1015 29.97 844 24.92 13.8 56.9 83 11 51.9
04:30 1015 29.97 844 24.92 14 57.3 84 11.4 52.6
04:35 1015 29.97 844 24.92 14.2 57.5 82 11.1 52
04:40 1015 29.97 844 24.92 14.2 57.6 81 11 51.7
04:45 1015 29.97 844 24.92 14.4 58 78 10.7 51.3
04:50 1015 29.97 844 24.92 14.6 58.2 79 10.9 51.6
04:55 1015 29.97 844 24.92 14.6 58.2 80 11.1 52
05:00 1015 29.97 844 24.92 14.5 58.1 81 11.4 52.5
05:05 1015 29.97 844 24.92 14.3 57.7 80 11 51.8
05:10 1015 29.97 844 24.92 14.3 57.8 81 11.2 52.2
05:15 1015 29.97 845 24.95 14.4 57.8 81 11.2 52.1
05:20 1015 29.97 845 24.95 14.3 57.7 84 11.6 52.8
05:25 1015 29.97 845 24.95 14 57.3 85 11.5 52.7
05:30 1015 29.97 845 24.95 14 57.1 84 11.3 52.4
05:35 1015 29.97 845 24.95 14 57.2 83 11.2 52.1
05:40 1016 30 845 24.95 14 57.3 83 11.2 52.2
05:45 1016 30 845 24.95 13.9 57 84 11.3 52.3
05:50 1016 30 845 24.95 13.8 56.9 84 11.2 52.2
05:55 1016 30 845 24.95 13.8 56.9 85 11.3 52.4
06:00 1016 30 845 24.95 13.9 57 85 11.4 52.5
06:05 1016 30 845 24.95 14.1 57.3 83 11.2 52.1
06:10 1016 30 845 24.95 14.5 58 81 11.3 52.3
06:15 1016 30 845 24.95 14.6 58.3 80 11.3 52.4
06:20 1016 30 845 24.95 14.7 58.4 80 11.3 52.4
06:25 1016 30 845 24.95 14.7 58.5 79 11.1 52
06:30 1016 30 845 24.95 14.8 58.6 79 11.3 52.3
06:35 1016 30 845 24.95 14.7 58.5 79 11.2 52.1
06:40 1016 30 845 24.95 14.6 58.3 78 10.9 51.6
06:45 1016 30 845 24.95 14.5 58.1 77 10.6 51.1
06:50 1016 30 845 24.95 14.5 58.1 77 10.5 50.9
06:55 1016 30 845 24.95 14.5 58 76 10.3 50.6
07:00 1016 30 845 24.95 14.5 58.1 76 10.4 50.7
07:05 1016 30 845 24.95 14.5 58.2 75 10.2 50.4
07:10 1016 30 846 24.98 14.5 58.2 76 10.3 50.6
07:15 1016 30 846 24.98 14.6 58.2 75 10.3 50.5
07:20 1016 30 846 24.98 14.6 58.3 74 10.1 50.1
07:25 1016 30 846 24.98 14.6 58.2 76 10.3 50.6
07:30 1016 30 846 24.98 14.5 58 78 10.7 51.3
07:35 1016 30 846 24.98 14.2 57.6 80 10.8 51.4
07:40 1016 30 845 24.95 14.1 57.4 80 10.7 51.2
07:45 1016 30 845 24.95 14.1 57.3 79 10.4 50.8
07:50 1016 30 845 24.95 14.2 57.6 76 10.1 50.1
07:55 1016 30 846 24.98 14.6 58.3 75 10.3 50.5
08:00 1016 30 846 24.98 14.7 58.4 75 10.3 50.5
08:05 1017 30.03 846 24.98 14.7 58.5 75 10.3 50.6
08:10 1017 30.03 846 24.98 14.7 58.5 74 10.1 50.3
08:15 1017 30.03 846 24.98 15 58.9 72 10 49.9
08:20 1017 30.03 846 24.98 15.2 59.4 71 10 50
08:25 1017 30.03 846 24.98 15.4 59.8 71 10.2 50.4
08:30 1017 30.03 846 24.98 15.6 60 69 10 50
08:35 1017 30.03 846 24.98 15.6 60.1 70 10.2 50.4
08:40 1017 30.03 846 24.98 15.5 59.9 72 10.6 51
08:45 1017 30.03 846 24.98 15.2 59.4 73 10.6 51
08:50 1017 30.03 846 24.98 15.2 59.4 73 10.5 50.9
08:55 1017 30.03 846 24.98 15.2 59.4 73 10.5 50.9
09:00 1017 30.03 846 24.98 15.3 59.6 71 10.2 50.3
09:05 1017 30.03 846 24.98 15.3 59.5 75 10.9 51.7
09:10 1017 30.03 846 24.98 15.1 59.2 75 10.7 51.3
09:15 1017 30.03 846 24.98 15.1 59.1 73 10.4 50.7
09:20 1017 30.03 846 24.98 15 59.1 74 10.4 50.8
09:25 1017 30.03 846 24.98 15.1 59.3 74 10.5 51
09:30 1017 30.03 846 24.98 15.2 59.4 72 10.2 50.4
09:35 1017 30.03 846 24.98 15.2 59.4 72 10.2 50.4
09:40 1017 30.03 846 24.98 15.4 59.7 71 10.2 50.4
09:45 1017 30.03 846 24.98 15.4 59.8 72 10.4 50.7
09:50 1017 30.03 846 24.98 15.5 59.9 71 10.4 50.7
09:55 1017 30.03 846 24.98 15.8 60.5 69 10.3 50.5
10:00 1017 30.03 846 24.98 16.6 62 65 10 50.1
10:05 1017 30.03 846 24.98 17 62.6 63 10.1 50.2
10:10 1017 30.03 846 24.98 17.1 62.8 63 10.1 50.1
10:15 1017 30.03 846 24.98 17.2 62.9 62 9.9 49.9
10:20 1017 30.03 846 24.98 16.9 62.3 62 9.7 49.4
10:25 1017 30.03 846 24.98 17.1 62.8 61 9.6 49.3
10:30 1017 30.03 846 24.98 17.3 63.2 60 9.6 49.4
10:35 1017 30.03 846 24.98 17.5 63.5 61 10 50
10:40 1017 30.03 846 24.98 17.6 63.6 60 9.8 49.6
10:45 1017 30.03 846 24.98 17.5 63.4 61 9.9 49.8
10:50 1017 30.03 846 24.98 17.6 63.6 61 10 50
10:55 1017 30.03 846 24.98 17.7 63.9 60 10 50.1
11:00 1017 30.03 846 24.98 17.9 64.2 60 10 50
11:05 1017 30.03 846 24.98 17.9 64.2 60 10.2 50.4
11:10 1017 30.03 846 24.98 18 64.3 60 10.1 50.1
11:15 1017 30.03 846 24.98 18.1 64.5 59 10.1 50.3
11:20 1017 30.03 846 24.98 18 64.3 61 10.3 50.6
11:25 1017 30.03 846 24.98 17.3 63.1 63 10.3 50.5
11:30 1017 30.03 846 24.98 17.3 63.2 64 10.4 50.8
11:35 1017 30.03 846 24.98 17.5 63.4 64 10.6 51.1
11:40 1017 30.03 846 24.98 17.1 62.8 64 10.4 50.7
11:45 1017 30.03 846 24.98 17.3 63.1 64 10.5 51
11:50 1017 30.03 846 24.98 17.3 63.1 66 11 51.8
11:55 1017 30.03 846 24.98 17.4 63.2 66 11.1 51.9
12:00 1017 30.03 846 24.98 17.9 64.3 63 10.9 51.5
12:05 1017 30.03 846 24.98 18.5 65.2 59 10.4 50.7
12:10 1016 30 846 24.98 19.8 67.6 55 10.5 50.8
12:15 1016 30 846 24.98 20.5 68.9 54 11.1 51.9
12:20 1016 30 846 24.98 20.2 68.3 55 10.9 51.7
12:25 1016 30 846 24.98 20.4 68.8 53 10.6 51
12:30 1016 30 846 24.98 21.1 70.1 50 10.5 51
12:35 1016 30 846 24.98 21.2 70.1 52 11.1 52
12:40 1016 30 846 24.98 20.9 69.7 52 10.9 51.6
12:45 1016 30 845 24.95 21.2 70.1 51 10.9 51.6
12:50 1016 30 845 24.95 21.1 69.9 53 11.2 52.2
12:55 1016 30 845 24.95 21.3 70.4 50 10.7 51.2
13:00 1016 30 845 24.95 21.3 70.3 50 10.5 50.9
13:05 1016 30 845 24.95 21.7 71 51 11.2 52.1
13:10 1016 30 845 24.95 21.3 70.3 53 11.3 52.4
13:15 1016 30 845 24.95 21 69.8 53 11.3 52.3
13:20 1016 30 845 24.95 20.5 69 53 10.9 51.6
13:25 1016 30 845 24.95 20.2 68.4 53 10.6 51.1
13:30 1016 30 845 24.95 20.7 69.2 52 10.7 51.3
13:35 1016 30 845 24.95 20.9 69.6 51 10.7 51.2
13:40 1016 30 845 24.95 20.8 69.5 52 10.7 51.3
13:45 1016 30 845 24.95 20.9 69.6 51 10.6 51.2
13:50 1015 29.97 845 24.95 20.8 69.4 52 10.7 51.3
13:55 1015 29.97 845 24.95 21.2 70.1 51 10.7 51.2
14:00 1015 29.97 845 24.95 21.1 69.9 51 10.8 51.4
14:05 1015 29.97 844 24.92 21.2 70.1 51 10.7 51.3
14:10 1015 29.97 844 24.92 21.2 70.1 53 11.2 52.2
14:15 1015 29.97 844 24.92 20.9 69.6 50 10.3 50.6
14:20 1015 29.97 844 24.92 21.9 71.5 48 10.6 51.2
14:25 1015 29.97 844 24.92 22.9 73.2 46 10.8 51.5
14:30 1015 29.97 844 24.92 22.4 72.4 48 11.1 52
14:35 1015 29.97 844 24.92 21.6 70.8 50 10.8 51.5
14:40 1015 29.97 844 24.92 22.1 71.8 46 10.3 50.5
14:45 1014 29.94 844 24.92 22.8 73.1 45 10.3 50.5
14:50 1014 29.94 843 24.89 22.2 72 46 10.2 50.3
14:55 1014 29.94 843 24.89 22 71.5 47 10.3 50.5
15:00 1014 29.94 843 24.89 21.9 71.3 47 10.3 50.5
15:05 1014 29.94 843 24.89 22 71.7 48 10.6 51
15:10 1014 29.94 843 24.89 22.4 72.2 45 10 50.1
15:15 1014 29.94 843 24.89 22.4 72.3 47 10.5 51
15:20 1014 29.94 843 24.89 22 71.7 49 11 51.8
15:25 1014 29.94 843 24.89 21.8 71.3 48 10.6 51
15:30 1014 29.94 843 24.89 21.2 70.2 49 10.2 50.3
15:35 1014 29.94 843 24.89 21.4 70.6 51 11 51.7
15:40 1014 29.94 843 24.89 21 69.9 50 10.5 50.9
15:45 1014 29.94 843 24.89 20.8 69.5 46 8.9 48
15:50 1014 29.94 843 24.89 20.6 69.1 48 9.4 48.9
15:55 1014 29.94 843 24.89 20.7 69.3 49 9.8 49.7
16:00 1014 29.94 843 24.89 20.7 69.3 47 9.2 48.6
16:05 1014 29.94 843 24.89 20.7 69.3 43 8 46.4
16:10 1014 29.94 843 24.89 20.7 69.2 43 7.9 46.3
16:15 1014 29.94 843 24.89 20.7 69.2 43 8 46.3
16:20 1014 29.94 843 24.89 20.7 69.3 44 8 46.4
16:25 1014 29.94 843 24.89 20.7 69.3 42 7.7 45.8
16:30 1014 29.94 843 24.89 20.7 69.3 42 7.5 45.4
16:35 1014 29.94 843 24.89 20.7 69.3 42 7.5 45.5
16:40 1014 29.94 843 24.89 20.7 69.3 42 7.5 45.5
16:45 1014 29.94 843 24.89 20.7 69.3 42 7.6 45.6
16:50 1014 29.94 843 24.89 20.8 69.4 41 7.2 45
16:55 1014 29.94 843 24.89 20.7 69.2 42 7.6 45.7
17:00 1014 29.94 843 24.89 20.6 69.1 41 7 44.7
17:05 1014 29.94 843 24.89 20.6 69.1 42 7.3 45.2
17:10 1014 29.94 843 24.89 20.6 69.1 42 7.4 45.3
17:15 1014 29.94 843 24.89 20.7 69.3 44 8 46.4
17:20 1014 29.94 843 24.89 20.7 69.2 42 7.6 45.7
17:25 1014 29.94 843 24.89 20.5 68.9 44 8 46.4
17:30 1014 29.94 843 24.89 20.4 68.8 44 7.9 46.3
17:35 1014 29.94 843 24.89 20.3 68.6 44 7.9 46.2
17:40 1014 29.94 843 24.89 20.1 68.2 52 10.1 50.2
17:45 1014 29.94 843 24.89 18.8 65.9 60 11.1 52
17:50 1014 29.94 843 24.89 18.2 64.8 63 11.1 52
17:55 1014 29.94 843 24.89 18.1 64.6 62 10.9 51.7
18:00 1014 29.94 843 24.89 18 64.5 64 11.2 52.1
18:05 1014 29.94 843 24.89 18.1 64.5 65 11.4 52.5
18:10 1014 29.94 843 24.89 18.1 64.5 66 11.6 52.9
18:15 1014 29.94 843 24.89 18.1 64.5 63 11 51.9
18:20 1014 29.94 843 24.89 17.8 64 66 11.5 52.7
18:25 1014 29.94 843 24.89 17.5 63.4 71 12.1 53.8
18:30 1014 29.94 843 24.89 17 62.5 73 12.1 53.8
18:35 1014 29.94 843 24.89 16.9 62.4 70 11.4 52.5
18:40 1014 29.94 843 24.89 17.3 63.1 68 11.3 52.3
18:45 1014 29.94 843 24.89 17.5 63.4 66 11.2 52.2
18:50 1013 29.91 843 24.89 17.7 63.8 65 11.2 52.1
18:55 1013 29.91 843 24.89 17.8 64 67 11.6 52.8
19:00 1013 29.91 843 24.89 17.8 64 64 10.8 51.5
19:05 1013 29.91 843 24.89 18 64.3 68 12.1 53.8
19:10 1014 29.94 843 24.89 17.6 63.8 66 11.3 52.3
19:15 1014 29.94 843 24.89 17.4 63.3 69 11.8 53.2
19:20 1014 29.94 843 24.89 16.9 62.5 73 12 53.6
19:25 1014 29.94 843 24.89 16.9 62.4 72 11.8 53.3
19:30 1014 29.94 843 24.89 17 62.6 71 11.7 53.1
19:35 1014 29.94 843 24.89 17.2 62.9 69 11.4 52.6
19:40 1014 29.94 843 24.89 17.2 63 55 8.3 46.9
19:45 1014 29.94 844 24.92 16.1 61 65 9.5 49.1
19:50 1015 29.97 844 24.92 14.5 58 77 10.4 50.8
19:55 1014 29.94 844 24.92 13.4 56.2 81 10.2 50.4
20:00 1015 29.97 844 24.92 13.4 56 79 9.9 49.8
20:05 1015 29.97 844 24.92 13.5 56.2 79 9.9 49.8
20:10 1015 29.97 844 24.92 13.6 56.4 78 9.8 49.6
20:15 1015 29.97 844 24.92 13.5 56.2 80 10.1 50.1
20:20 1015 29.97 844 24.92 13.3 55.9 80 9.8 49.7
20:25 1015 29.97 844 24.92 13.1 55.6 79 9.5 49.1
20:30 1015 29.97 844 24.92 13 55.4 82 10 50
20:35 1015 29.97 844 24.92 12.7 54.9 83 9.9 49.8
20:40 1015 29.97 844 24.92 12.4 54.4 86 10.2 50.3
20:45 1015 29.97 844 24.92 12.5 54.4 84 9.9 49.8
20:50 1015 29.97 844 24.92 12.3 54.2 87 10.3 50.5
20:55 1015 29.97 844 24.92 12.3 54.1 86 10 50
21:00 1015 29.97 844 24.92 12.2 54 87 10.1 50.3
21:05 1015 29.97 844 24.92 12.2 53.9 87 10 50.1
21:10 1015 29.97 844 24.92 12.4 54.3 85 10 50
21:15 1015 29.97 844 24.92 12.5 54.6 85 10 50.1
21:20 1015 29.97 844 24.92 12.5 54.4 87 10.4 50.7
21:25 1015 29.97 844 24.92 12.3 54.1 89 10.5 51
21:30 1015 29.97 844 24.92 12.2 53.9 89 10.4 50.7
21:35 1015 29.97 844 24.92 12.2 54 89 10.4 50.8
21:40 1015 29.97 844 24.92 12.2 54 89 10.4 50.8
21:45 1015 29.97 844 24.92 12.2 53.9 90 10.6 51.1
21:50 1015 29.97 844 24.92 12.2 53.9 91 10.7 51.3
21:55 1015 29.97 844 24.92 12.1 53.8 91 10.8 51.4
22:00 1015 29.97 844 24.92 12.2 53.9 92 10.9 51.6
22:05 1015 29.97 844 24.92 12.2 54 92 10.9 51.7
22:10 1015 29.97 844 24.92 12.3 54.2 92 11.1 51.9
22:15 1015 29.97 844 24.92 12.4 54.2 91 11 51.8
22:20 1015 29.97 844 24.92 12.5 54.4 90 10.8 51.5
22:25 1015 29.97 844 24.92 12.6 54.7 88 10.6 51.1
22:30 1015 29.97 844 24.92 12.5 54.5 90 10.8 51.5
22:35 1015 29.97 844 24.92 12.4 54.3 89 10.7 51.3
22:40 1015 29.97 844 24.92 12.5 54.4 87 10.4 50.8
22:45 1015 29.97 844 24.92 12.7 54.8 85 10.2 50.3
22:50 1015 29.97 844 24.92 12.8 55.1 85 10.4 50.8
22:55 1015 29.97 844 24.92 12.6 54.6 87 10.4 50.8
23:00 1015 29.97 844 24.92 12.4 54.3 90 10.8 51.5
23:05 1015 29.97 844 24.92 12.2 54 87 10.2 50.3
23:10 1015 29.97 844 24.92 12.5 54.4 88 10.6 51
23:15 1015 29.97 844 24.92 12.8 55 90 11.1 52
23:20 1015 29.97 845 24.95 12.7 54.8 91 11.2 52.2
23:25 1015 29.97 845 24.95 12.6 54.7 91 11.2 52.1
23:30 1015 29.97 845 24.95 12.7 54.8 90 11.1 52
23:35 1016 30 845 24.95 12.6 54.7 88 10.7 51.3
23:40 1016 30 845 24.95 12.7 54.9 88 10.8 51.4
23:45 1016 30 845 24.95 12.7 54.8 89 10.9 51.6
23:50 1016 30 845 24.95 12.6 54.7 88 10.8 51.4
23:55 1015 29.97 845 24.95 12.6 54.7 90 11 51.8
24:00 1015 29.97 845 24.95 12.6 54.6 90 11.1 51.9